sensor_id;sensor_type;location;lat;lon;timestamp;P1;durP1;ratioP1;P2;durP2;ratioP2
38338;SDS011;37117;50.050;19.924;2023-03-11T00:00:45;11.40;;;6.50;;
38338;SDS011;37117;50.050;19.924;2023-03-11T00:03:26;11.50;;;6.40;;
38338;SDS011;37117;50.050;19.924;2023-03-11T00:05:59;14.30;;;6.80;;
38338;SDS011;37117;50.050;19.924;2023-03-11T00:08:30;9.60;;;5.90;;
38338;SDS011;37117;50.050;19.924;2023-03-11T00:11:00;11.50;;;6.00;;
38338;SDS011;37117;50.050;19.924;2023-03-11T00:13:31;12.40;;;7.10;;
38338;SDS011;37117;50.050;19.924;2023-03-11T00:16:03;11.60;;;7.10;;
38338;SDS011;37117;50.050;19.924;2023-03-11T00:18:34;12.80;;;7.10;;
38338;SDS011;37117;50.050;19.924;2023-03-11T00:21:05;11.20;;;6.40;;
38338;SDS011;37117;50.050;19.924;2023-03-11T00:23:43;14.50;;;7.50;;
38338;SDS011;37117;50.050;19.924;2023-03-11T00:26:14;10.00;;;6.50;;
38338;SDS011;37117;50.050;19.924;2023-03-11T00:28:45;10.80;;;7.00;;
38338;SDS011;37117;50.050;19.924;2023-03-11T00:31:17;11.50;;;6.60;;
38338;SDS011;37117;50.050;19.924;2023-03-11T00:33:49;12.20;;;6.90;;
38338;SDS011;37117;50.050;19.924;2023-03-11T00:36:21;13.10;;;7.60;;
38338;SDS011;37117;50.050;19.924;2023-03-11T00:38:53;10.40;;;6.40;;
38338;SDS011;37117;50.050;19.924;2023-03-11T00:41:27;10.70;;;6.10;;
38338;SDS011;37117;50.050;19.924;2023-03-11T00:43:58;12.50;;;6.60;;
38338;SDS011;37117;50.050;19.924;2023-03-11T00:49:01;11.20;;;6.80;;
38338;SDS011;37117;50.050;19.924;2023-03-11T00:51:31;12.50;;;6.00;;
38338;SDS011;37117;50.050;19.924;2023-03-11T00:54:02;13.70;;;7.00;;
38338;SDS011;37117;50.050;19.924;2023-03-11T00:56:33;10.40;;;6.30;;
38338;SDS011;37117;50.050;19.924;2023-03-11T00:59:05;13.10;;;7.40;;
38338;SDS011;37117;50.050;19.924;2023-03-11T01:01:36;14.90;;;8.40;;
38338;SDS011;37117;50.050;19.924;2023-03-11T01:04:07;11.60;;;6.70;;
38338;SDS011;37117;50.050;19.924;2023-03-11T01:06:40;10.60;;;7.10;;
38338;SDS011;37117;50.050;19.924;2023-03-11T01:09:14;13.70;;;6.40;;
38338;SDS011;37117;50.050;19.924;2023-03-11T01:11:44;12.30;;;7.30;;
38338;SDS011;37117;50.050;19.924;2023-03-11T01:14:16;17.90;;;6.20;;
38338;SDS011;37117;50.050;19.924;2023-03-11T01:16:47;11.50;;;6.30;;
38338;SDS011;37117;50.050;19.924;2023-03-11T01:19:17;10.10;;;6.30;;
38338;SDS011;37117;50.050;19.924;2023-03-11T01:21:48;12.40;;;8.10;;
38338;SDS011;37117;50.050;19.924;2023-03-11T01:24:19;10.70;;;6.70;;
38338;SDS011;37117;50.050;19.924;2023-03-11T01:26:49;10.90;;;6.50;;
38338;SDS011;37117;50.050;19.924;2023-03-11T01:29:20;12.20;;;6.20;;
38338;SDS011;37117;50.050;19.924;2023-03-11T01:31:51;12.80;;;7.30;;
38338;SDS011;37117;50.050;19.924;2023-03-11T01:34:23;14.10;;;8.00;;
38338;SDS011;37117;50.050;19.924;2023-03-11T01:36:53;15.80;;;8.10;;
38338;SDS011;37117;50.050;19.924;2023-03-11T01:39:25;11.50;;;7.10;;
38338;SDS011;37117;50.050;19.924;2023-03-11T01:41:56;11.90;;;7.20;;
38338;SDS011;37117;50.050;19.924;2023-03-11T01:44:27;7.80;;;5.50;;
38338;SDS011;37117;50.050;19.924;2023-03-11T01:49:48;8.90;;;4.60;;
38338;SDS011;37117;50.050;19.924;2023-03-11T01:52:19;7.30;;;4.10;;
38338;SDS011;37117;50.050;19.924;2023-03-11T01:54:52;7.60;;;3.30;;
38338;SDS011;37117;50.050;19.924;2023-03-11T01:57:24;6.80;;;2.90;;
38338;SDS011;37117;50.050;19.924;2023-03-11T01:59:55;5.40;;;2.60;;
38338;SDS011;37117;50.050;19.924;2023-03-11T02:02:29;4.80;;;2.20;;
38338;SDS011;37117;50.050;19.924;2023-03-11T02:07:30;7.60;;;1.80;;
38338;SDS011;37117;50.050;19.924;2023-03-11T02:10:01;5.20;;;1.90;;
38338;SDS011;37117;50.050;19.924;2023-03-11T02:12:34;4.20;;;2.20;;
38338;SDS011;37117;50.050;19.924;2023-03-11T02:15:06;4.30;;;1.90;;
38338;SDS011;37117;50.050;19.924;2023-03-11T02:17:39;4.10;;;1.80;;
38338;SDS011;37117;50.050;19.924;2023-03-11T02:20:19;3.30;;;1.30;;
38338;SDS011;37117;50.050;19.924;2023-03-11T02:22:53;4.90;;;1.40;;
38338;SDS011;37117;50.050;19.924;2023-03-11T02:25:28;3.10;;;1.20;;
38338;SDS011;37117;50.050;19.924;2023-03-11T02:28:00;4.20;;;1.60;;
38338;SDS011;37117;50.050;19.924;2023-03-11T02:30:34;3.90;;;1.20;;
38338;SDS011;37117;50.050;19.924;2023-03-11T02:33:06;2.50;;;0.90;;
38338;SDS011;37117;50.050;19.924;2023-03-11T02:35:37;1.70;;;0.70;;
38338;SDS011;37117;50.050;19.924;2023-03-11T02:38:09;4.20;;;1.30;;
38338;SDS011;37117;50.050;19.924;2023-03-11T02:40:48;2.30;;;0.90;;
38338;SDS011;37117;50.050;19.924;2023-03-11T02:43:22;2.70;;;0.90;;
38338;SDS011;37117;50.050;19.924;2023-03-11T02:45:54;2.80;;;1.00;;
38338;SDS011;37117;50.050;19.924;2023-03-11T02:48:25;2.30;;;0.90;;
38338;SDS011;37117;50.050;19.924;2023-03-11T02:50:57;3.70;;;1.40;;
38338;SDS011;37117;50.050;19.924;2023-03-11T02:53:29;2.30;;;0.90;;
38338;SDS011;37117;50.050;19.924;2023-03-11T02:56:01;3.00;;;1.20;;
38338;SDS011;37117;50.050;19.924;2023-03-11T02:58:33;3.60;;;0.80;;
38338;SDS011;37117;50.050;19.924;2023-03-11T03:01:04;2.80;;;1.00;;
38338;SDS011;37117;50.050;19.924;2023-03-11T03:03:36;3.20;;;1.10;;
38338;SDS011;37117;50.050;19.924;2023-03-11T03:06:07;3.00;;;1.00;;
38338;SDS011;37117;50.050;19.924;2023-03-11T03:08:39;4.10;;;1.10;;
38338;SDS011;37117;50.050;19.924;2023-03-11T03:11:10;2.20;;;0.80;;
38338;SDS011;37117;50.050;19.924;2023-03-11T03:13:41;2.00;;;0.70;;
38338;SDS011;37117;50.050;19.924;2023-03-11T03:16:12;1.60;;;0.70;;
38338;SDS011;37117;50.050;19.924;2023-03-11T03:18:43;4.20;;;0.80;;
38338;SDS011;37117;50.050;19.924;2023-03-11T03:21:13;2.70;;;0.80;;
38338;SDS011;37117;50.050;19.924;2023-03-11T03:23:44;2.10;;;0.80;;
38338;SDS011;37117;50.050;19.924;2023-03-11T03:26:17;2.10;;;0.80;;
38338;SDS011;37117;50.050;19.924;2023-03-11T03:28:49;2.60;;;0.90;;
38338;SDS011;37117;50.050;19.924;2023-03-11T03:31:20;2.70;;;0.80;;
38338;SDS011;37117;50.050;19.924;2023-03-11T03:33:51;3.50;;;1.00;;
38338;SDS011;37117;50.050;19.924;2023-03-11T03:36:22;2.20;;;0.90;;
38338;SDS011;37117;50.050;19.924;2023-03-11T03:38:58;3.30;;;1.50;;
38338;SDS011;37117;50.050;19.924;2023-03-11T03:41:32;2.90;;;1.00;;
38338;SDS011;37117;50.050;19.924;2023-03-11T03:44:04;3.20;;;1.00;;
38338;SDS011;37117;50.050;19.924;2023-03-11T03:46:36;3.00;;;1.10;;
38338;SDS011;37117;50.050;19.924;2023-03-11T03:49:09;2.60;;;1.10;;
38338;SDS011;37117;50.050;19.924;2023-03-11T03:51:41;5.90;;;1.20;;
38338;SDS011;37117;50.050;19.924;2023-03-11T03:54:18;2.90;;;1.20;;
38338;SDS011;37117;50.050;19.924;2023-03-11T03:56:49;3.80;;;1.40;;
38338;SDS011;37117;50.050;19.924;2023-03-11T03:59:20;2.60;;;1.00;;
38338;SDS011;37117;50.050;19.924;2023-03-11T04:01:55;3.70;;;1.30;;
38338;SDS011;37117;50.050;19.924;2023-03-11T04:04:27;3.70;;;1.20;;
38338;SDS011;37117;50.050;19.924;2023-03-11T04:06:58;4.90;;;1.70;;
38338;SDS011;37117;50.050;19.924;2023-03-11T04:09:30;5.50;;;1.50;;
38338;SDS011;37117;50.050;19.924;2023-03-11T04:12:01;3.80;;;1.50;;
38338;SDS011;37117;50.050;19.924;2023-03-11T04:14:34;2.70;;;1.10;;
38338;SDS011;37117;50.050;19.924;2023-03-11T04:17:05;4.30;;;1.40;;
38338;SDS011;37117;50.050;19.924;2023-03-11T04:19:36;3.30;;;1.30;;
38338;SDS011;37117;50.050;19.924;2023-03-11T04:22:08;4.00;;;1.20;;
38338;SDS011;37117;50.050;19.924;2023-03-11T04:24:39;3.50;;;1.30;;
38338;SDS011;37117;50.050;19.924;2023-03-11T04:27:10;3.60;;;1.40;;
38338;SDS011;37117;50.050;19.924;2023-03-11T04:29:42;2.60;;;1.00;;
38338;SDS011;37117;50.050;19.924;2023-03-11T04:32:13;3.80;;;1.40;;
38338;SDS011;37117;50.050;19.924;2023-03-11T04:34:45;3.60;;;1.40;;
38338;SDS011;37117;50.050;19.924;2023-03-11T04:37:16;3.30;;;1.40;;
38338;SDS011;37117;50.050;19.924;2023-03-11T04:39:48;3.60;;;1.20;;
38338;SDS011;37117;50.050;19.924;2023-03-11T04:42:21;5.20;;;1.20;;
38338;SDS011;37117;50.050;19.924;2023-03-11T04:44:54;3.90;;;1.30;;
38338;SDS011;37117;50.050;19.924;2023-03-11T04:47:27;3.30;;;1.10;;
38338;SDS011;37117;50.050;19.924;2023-03-11T04:49:58;3.40;;;1.20;;
38338;SDS011;37117;50.050;19.924;2023-03-11T04:52:29;5.50;;;1.70;;
38338;SDS011;37117;50.050;19.924;2023-03-11T04:55:01;3.20;;;1.30;;
38338;SDS011;37117;50.050;19.924;2023-03-11T04:57:33;3.60;;;1.20;;
38338;SDS011;37117;50.050;19.924;2023-03-11T05:00:06;3.60;;;1.50;;
38338;SDS011;37117;50.050;19.924;2023-03-11T05:02:39;4.30;;;1.50;;
38338;SDS011;37117;50.050;19.924;2023-03-11T05:05:10;2.90;;;1.30;;
38338;SDS011;37117;50.050;19.924;2023-03-11T05:07:42;3.70;;;1.50;;
38338;SDS011;37117;50.050;19.924;2023-03-11T05:10:14;3.20;;;1.40;;
38338;SDS011;37117;50.050;19.924;2023-03-11T05:12:52;3.50;;;1.40;;
38338;SDS011;37117;50.050;19.924;2023-03-11T05:15:25;6.00;;;1.50;;
38338;SDS011;37117;50.050;19.924;2023-03-11T05:17:57;2.70;;;1.10;;
38338;SDS011;37117;50.050;19.924;2023-03-11T05:20:29;3.80;;;1.50;;
38338;SDS011;37117;50.050;19.924;2023-03-11T05:23:01;3.00;;;1.50;;
38338;SDS011;37117;50.050;19.924;2023-03-11T05:25:32;3.40;;;1.40;;
38338;SDS011;37117;50.050;19.924;2023-03-11T05:28:04;3.50;;;1.40;;
38338;SDS011;37117;50.050;19.924;2023-03-11T05:30:38;4.40;;;1.30;;
38338;SDS011;37117;50.050;19.924;2023-03-11T05:33:10;3.40;;;1.40;;
38338;SDS011;37117;50.050;19.924;2023-03-11T05:35:41;3.40;;;1.30;;
38338;SDS011;37117;50.050;19.924;2023-03-11T05:38:12;3.30;;;1.30;;
38338;SDS011;37117;50.050;19.924;2023-03-11T05:40:43;3.80;;;1.60;;
38338;SDS011;37117;50.050;19.924;2023-03-11T05:43:15;3.80;;;1.50;;
38338;SDS011;37117;50.050;19.924;2023-03-11T05:45:48;3.10;;;1.30;;
38338;SDS011;37117;50.050;19.924;2023-03-11T05:48:19;3.60;;;1.40;;
38338;SDS011;37117;50.050;19.924;2023-03-11T05:50:50;5.50;;;1.40;;
38338;SDS011;37117;50.050;19.924;2023-03-11T05:53:21;2.90;;;1.40;;
38338;SDS011;37117;50.050;19.924;2023-03-11T05:55:57;3.30;;;1.40;;
38338;SDS011;37117;50.050;19.924;2023-03-11T05:58:28;4.60;;;1.50;;
38338;SDS011;37117;50.050;19.924;2023-03-11T06:01:00;3.40;;;1.50;;
38338;SDS011;37117;50.050;19.924;2023-03-11T06:03:30;3.60;;;1.60;;
38338;SDS011;37117;50.050;19.924;2023-03-11T06:06:03;4.60;;;2.00;;
38338;SDS011;37117;50.050;19.924;2023-03-11T06:08:34;6.40;;;1.80;;
38338;SDS011;37117;50.050;19.924;2023-03-11T06:11:08;6.70;;;2.10;;
38338;SDS011;37117;50.050;19.924;2023-03-11T06:13:39;4.70;;;2.20;;
38338;SDS011;37117;50.050;19.924;2023-03-11T06:16:11;4.10;;;1.70;;
38338;SDS011;37117;50.050;19.924;2023-03-11T06:18:42;2.60;;;1.20;;
38338;SDS011;37117;50.050;19.924;2023-03-11T06:21:14;2.80;;;1.10;;
38338;SDS011;37117;50.050;19.924;2023-03-11T06:23:46;4.40;;;1.30;;
38338;SDS011;37117;50.050;19.924;2023-03-11T06:26:19;3.00;;;1.30;;
38338;SDS011;37117;50.050;19.924;2023-03-11T06:28:50;3.90;;;1.30;;
38338;SDS011;37117;50.050;19.924;2023-03-11T06:31:23;3.80;;;1.40;;
38338;SDS011;37117;50.050;19.924;2023-03-11T06:33:58;3.80;;;1.40;;
38338;SDS011;37117;50.050;19.924;2023-03-11T06:36:29;3.60;;;1.50;;
38338;SDS011;37117;50.050;19.924;2023-03-11T06:39:00;4.40;;;1.70;;
38338;SDS011;37117;50.050;19.924;2023-03-11T06:41:33;4.10;;;1.30;;
38338;SDS011;37117;50.050;19.924;2023-03-11T06:46:35;3.60;;;1.70;;
38338;SDS011;37117;50.050;19.924;2023-03-11T06:49:06;3.80;;;1.50;;
38338;SDS011;37117;50.050;19.924;2023-03-11T06:51:37;2.90;;;1.30;;
38338;SDS011;37117;50.050;19.924;2023-03-11T06:54:09;4.30;;;1.70;;
38338;SDS011;37117;50.050;19.924;2023-03-11T06:56:41;3.40;;;1.70;;
38338;SDS011;37117;50.050;19.924;2023-03-11T06:59:12;3.70;;;1.60;;
38338;SDS011;37117;50.050;19.924;2023-03-11T07:01:44;4.10;;;1.90;;
38338;SDS011;37117;50.050;19.924;2023-03-11T07:04:15;5.20;;;2.00;;
38338;SDS011;37117;50.050;19.924;2023-03-11T07:06:46;7.00;;;1.80;;
38338;SDS011;37117;50.050;19.924;2023-03-11T07:09:20;5.60;;;1.80;;
38338;SDS011;37117;50.050;19.924;2023-03-11T07:11:54;3.70;;;1.80;;
38338;SDS011;37117;50.050;19.924;2023-03-11T07:14:28;3.70;;;1.80;;
38338;SDS011;37117;50.050;19.924;2023-03-11T07:17:00;3.30;;;1.50;;
38338;SDS011;37117;50.050;19.924;2023-03-11T07:19:35;4.50;;;1.90;;
38338;SDS011;37117;50.050;19.924;2023-03-11T07:22:06;7.20;;;2.00;;
38338;SDS011;37117;50.050;19.924;2023-03-11T07:24:37;3.70;;;1.60;;
38338;SDS011;37117;50.050;19.924;2023-03-11T07:27:08;4.30;;;1.80;;
38338;SDS011;37117;50.050;19.924;2023-03-11T07:29:39;3.70;;;1.60;;
38338;SDS011;37117;50.050;19.924;2023-03-11T07:32:10;3.30;;;1.60;;
38338;SDS011;37117;50.050;19.924;2023-03-11T07:34:42;3.50;;;1.70;;
38338;SDS011;37117;50.050;19.924;2023-03-11T07:37:13;3.90;;;1.40;;
38338;SDS011;37117;50.050;19.924;2023-03-11T07:42:19;4.20;;;1.60;;
38338;SDS011;37117;50.050;19.924;2023-03-11T07:44:50;4.70;;;1.90;;
38338;SDS011;37117;50.050;19.924;2023-03-11T07:47:22;3.70;;;1.70;;
38338;SDS011;37117;50.050;19.924;2023-03-11T07:50:11;5.30;;;1.90;;
38338;SDS011;37117;50.050;19.924;2023-03-11T07:52:48;3.70;;;1.90;;
38338;SDS011;37117;50.050;19.924;2023-03-11T07:55:19;4.60;;;1.80;;
38338;SDS011;37117;50.050;19.924;2023-03-11T07:57:51;3.70;;;1.70;;
38338;SDS011;37117;50.050;19.924;2023-03-11T08:00:23;4.40;;;2.10;;
38338;SDS011;37117;50.050;19.924;2023-03-11T08:02:54;4.30;;;2.30;;
38338;SDS011;37117;50.050;19.924;2023-03-11T08:05:24;4.50;;;2.00;;
38338;SDS011;37117;50.050;19.924;2023-03-11T08:07:56;4.00;;;1.90;;
38338;SDS011;37117;50.050;19.924;2023-03-11T08:10:26;5.50;;;2.10;;
38338;SDS011;37117;50.050;19.924;2023-03-11T08:12:57;5.60;;;2.10;;
38338;SDS011;37117;50.050;19.924;2023-03-11T08:15:28;4.50;;;2.20;;
38338;SDS011;37117;50.050;19.924;2023-03-11T08:18:00;3.70;;;1.90;;
38338;SDS011;37117;50.050;19.924;2023-03-11T08:20:31;4.70;;;2.10;;
38338;SDS011;37117;50.050;19.924;2023-03-11T08:23:09;4.60;;;2.10;;
38338;SDS011;37117;50.050;19.924;2023-03-11T08:25:40;4.00;;;1.70;;
38338;SDS011;37117;50.050;19.924;2023-03-11T08:28:11;3.90;;;1.80;;
38338;SDS011;37117;50.050;19.924;2023-03-11T08:30:42;4.20;;;2.00;;
38338;SDS011;37117;50.050;19.924;2023-03-11T08:33:13;4.00;;;2.10;;
38338;SDS011;37117;50.050;19.924;2023-03-11T08:35:44;4.00;;;2.10;;
38338;SDS011;37117;50.050;19.924;2023-03-11T08:38:15;3.40;;;1.80;;
38338;SDS011;37117;50.050;19.924;2023-03-11T08:40:45;4.60;;;2.10;;
38338;SDS011;37117;50.050;19.924;2023-03-11T08:43:16;3.80;;;1.80;;
38338;SDS011;37117;50.050;19.924;2023-03-11T08:45:47;4.30;;;2.30;;
38338;SDS011;37117;50.050;19.924;2023-03-11T08:48:18;5.20;;;2.50;;
38338;SDS011;37117;50.050;19.924;2023-03-11T08:50:49;4.10;;;2.20;;
38338;SDS011;37117;50.050;19.924;2023-03-11T08:53:23;4.60;;;2.20;;
38338;SDS011;37117;50.050;19.924;2023-03-11T08:55:54;4.50;;;2.20;;
38338;SDS011;37117;50.050;19.924;2023-03-11T08:58:25;6.60;;;2.80;;
38338;SDS011;37117;50.050;19.924;2023-03-11T09:00:57;5.80;;;2.60;;
38338;SDS011;37117;50.050;19.924;2023-03-11T09:03:31;5.60;;;3.10;;
38338;SDS011;37117;50.050;19.924;2023-03-11T09:06:02;5.30;;;2.80;;
38338;SDS011;37117;50.050;19.924;2023-03-11T09:08:34;4.30;;;2.40;;
38338;SDS011;37117;50.050;19.924;2023-03-11T09:11:05;6.10;;;3.20;;
38338;SDS011;37117;50.050;19.924;2023-03-11T09:13:38;4.50;;;2.90;;
38338;SDS011;37117;50.050;19.924;2023-03-11T09:16:10;4.50;;;2.60;;
38338;SDS011;37117;50.050;19.924;2023-03-11T09:18:42;6.10;;;2.90;;
38338;SDS011;37117;50.050;19.924;2023-03-11T09:21:12;5.90;;;3.20;;
38338;SDS011;37117;50.050;19.924;2023-03-11T09:23:43;4.70;;;2.60;;
38338;SDS011;37117;50.050;19.924;2023-03-11T09:26:14;5.10;;;2.40;;
38338;SDS011;37117;50.050;19.924;2023-03-11T09:28:45;5.90;;;3.00;;
38338;SDS011;37117;50.050;19.924;2023-03-11T09:31:17;5.30;;;2.90;;
38338;SDS011;37117;50.050;19.924;2023-03-11T09:33:49;7.40;;;3.40;;
38338;SDS011;37117;50.050;19.924;2023-03-11T09:36:21;6.60;;;3.00;;
38338;SDS011;37117;50.050;19.924;2023-03-11T09:38:52;6.90;;;3.70;;
38338;SDS011;37117;50.050;19.924;2023-03-11T09:41:26;7.50;;;3.50;;
38338;SDS011;37117;50.050;19.924;2023-03-11T09:47:05;5.50;;;2.80;;
38338;SDS011;37117;50.050;19.924;2023-03-11T09:49:47;6.30;;;3.80;;
38338;SDS011;37117;50.050;19.924;2023-03-11T09:52:22;5.80;;;3.30;;
38338;SDS011;37117;50.050;19.924;2023-03-11T09:54:55;5.90;;;3.30;;
38338;SDS011;37117;50.050;19.924;2023-03-11T09:57:28;7.60;;;4.30;;
38338;SDS011;37117;50.050;19.924;2023-03-11T10:00:00;6.40;;;3.60;;
38338;SDS011;37117;50.050;19.924;2023-03-11T10:02:40;6.70;;;3.30;;
38338;SDS011;37117;50.050;19.924;2023-03-11T10:05:12;6.40;;;3.60;;
38338;SDS011;37117;50.050;19.924;2023-03-11T10:07:46;6.00;;;3.40;;
38338;SDS011;37117;50.050;19.924;2023-03-11T10:10:19;5.80;;;3.20;;
38338;SDS011;37117;50.050;19.924;2023-03-11T10:12:51;5.20;;;2.90;;
38338;SDS011;37117;50.050;19.924;2023-03-11T10:15:27;6.70;;;3.30;;
38338;SDS011;37117;50.050;19.924;2023-03-11T10:18:04;5.30;;;3.00;;
38338;SDS011;37117;50.050;19.924;2023-03-11T10:20:38;5.60;;;3.30;;
38338;SDS011;37117;50.050;19.924;2023-03-11T10:23:14;6.50;;;4.40;;
38338;SDS011;37117;50.050;19.924;2023-03-11T10:25:52;5.50;;;3.30;;
38338;SDS011;37117;50.050;19.924;2023-03-11T10:28:25;5.50;;;2.80;;
38338;SDS011;37117;50.050;19.924;2023-03-11T10:30:59;6.10;;;3.40;;
38338;SDS011;37117;50.050;19.924;2023-03-11T10:33:34;6.50;;;3.50;;
38338;SDS011;37117;50.050;19.924;2023-03-11T10:36:09;6.00;;;3.50;;
38338;SDS011;37117;50.050;19.924;2023-03-11T10:38:43;6.40;;;3.30;;
38338;SDS011;37117;50.050;19.924;2023-03-11T10:43:45;5.60;;;3.80;;
38338;SDS011;37117;50.050;19.924;2023-03-11T10:46:22;6.70;;;3.50;;
38338;SDS011;37117;50.050;19.924;2023-03-11T10:48:54;4.90;;;2.70;;
38338;SDS011;37117;50.050;19.924;2023-03-11T10:51:25;7.40;;;3.60;;
38338;SDS011;37117;50.050;19.924;2023-03-11T10:53:58;6.60;;;3.40;;
38338;SDS011;37117;50.050;19.924;2023-03-11T10:56:31;5.90;;;3.30;;
38338;SDS011;37117;50.050;19.924;2023-03-11T10:59:04;5.30;;;3.50;;
38338;SDS011;37117;50.050;19.924;2023-03-11T11:01:35;8.40;;;3.50;;
38338;SDS011;37117;50.050;19.924;2023-03-11T11:04:10;5.60;;;3.20;;
38338;SDS011;37117;50.050;19.924;2023-03-11T11:06:53;5.70;;;2.70;;
38338;SDS011;37117;50.050;19.924;2023-03-11T11:09:24;5.20;;;3.40;;
38338;SDS011;37117;50.050;19.924;2023-03-11T11:12:03;6.10;;;3.80;;
38338;SDS011;37117;50.050;19.924;2023-03-11T11:14:44;8.40;;;3.90;;
38338;SDS011;37117;50.050;19.924;2023-03-11T11:17:19;7.40;;;4.30;;
38338;SDS011;37117;50.050;19.924;2023-03-11T11:19:53;8.40;;;3.90;;
38338;SDS011;37117;50.050;19.924;2023-03-11T11:22:25;7.10;;;3.80;;
38338;SDS011;37117;50.050;19.924;2023-03-11T11:24:56;8.30;;;4.20;;
38338;SDS011;37117;50.050;19.924;2023-03-11T11:27:27;9.00;;;4.10;;
38338;SDS011;37117;50.050;19.924;2023-03-11T11:30:12;5.80;;;3.70;;
38338;SDS011;37117;50.050;19.924;2023-03-11T11:32:44;8.60;;;5.00;;
38338;SDS011;37117;50.050;19.924;2023-03-11T11:35:15;7.40;;;4.40;;
38338;SDS011;37117;50.050;19.924;2023-03-11T11:40:18;6.50;;;4.10;;
38338;SDS011;37117;50.050;19.924;2023-03-11T11:42:51;7.30;;;4.70;;
38338;SDS011;37117;50.050;19.924;2023-03-11T11:45:27;6.90;;;4.70;;
38338;SDS011;37117;50.050;19.924;2023-03-11T11:48:00;7.60;;;4.40;;
38338;SDS011;37117;50.050;19.924;2023-03-11T11:50:34;7.10;;;4.60;;
38338;SDS011;37117;50.050;19.924;2023-03-11T11:53:10;8.30;;;4.60;;
38338;SDS011;37117;50.050;19.924;2023-03-11T11:55:45;6.60;;;4.40;;
38338;SDS011;37117;50.050;19.924;2023-03-11T11:58:18;7.50;;;4.30;;
38338;SDS011;37117;50.050;19.924;2023-03-11T12:00:51;9.60;;;5.00;;
38338;SDS011;37117;50.050;19.924;2023-03-11T12:06:13;7.70;;;4.80;;
38338;SDS011;37117;50.050;19.924;2023-03-11T12:08:49;7.30;;;4.40;;
38338;SDS011;37117;50.050;19.924;2023-03-11T12:11:22;7.90;;;5.10;;
38338;SDS011;37117;50.050;19.924;2023-03-11T12:13:58;6.60;;;4.30;;
38338;SDS011;37117;50.050;19.924;2023-03-11T12:16:36;7.70;;;4.20;;
38338;SDS011;37117;50.050;19.924;2023-03-11T12:19:15;6.80;;;4.40;;
38338;SDS011;37117;50.050;19.924;2023-03-11T12:21:51;8.80;;;4.80;;
38338;SDS011;37117;50.050;19.924;2023-03-11T12:27:17;7.30;;;4.90;;
38338;SDS011;37117;50.050;19.924;2023-03-11T12:29:49;7.70;;;4.00;;
38338;SDS011;37117;50.050;19.924;2023-03-11T12:32:22;7.30;;;3.60;;
38338;SDS011;37117;50.050;19.924;2023-03-11T12:34:53;5.10;;;3.10;;
38338;SDS011;37117;50.050;19.924;2023-03-11T12:37:24;6.20;;;2.80;;
38338;SDS011;37117;50.050;19.924;2023-03-11T12:39:55;5.90;;;3.70;;
38338;SDS011;37117;50.050;19.924;2023-03-11T12:42:26;9.40;;;4.10;;
38338;SDS011;37117;50.050;19.924;2023-03-11T12:50:40;7.00;;;3.30;;
38338;SDS011;37117;50.050;19.924;2023-03-11T12:53:16;6.50;;;4.00;;
38338;SDS011;37117;50.050;19.924;2023-03-11T12:55:58;6.90;;;3.40;;
38338;SDS011;37117;50.050;19.924;2023-03-11T12:58:46;7.20;;;4.00;;
38338;SDS011;37117;50.050;19.924;2023-03-11T13:01:36;8.10;;;4.40;;
38338;SDS011;37117;50.050;19.924;2023-03-11T13:04:20;7.70;;;4.20;;
38338;SDS011;37117;50.050;19.924;2023-03-11T13:09:38;4.40;;;2.60;;
38338;SDS011;37117;50.050;19.924;2023-03-11T13:17:38;8.00;;;3.50;;
38338;SDS011;37117;50.050;19.924;2023-03-11T13:25:39;6.50;;;3.60;;
38338;SDS011;37117;50.050;19.924;2023-03-11T13:28:17;7.30;;;4.10;;
38338;SDS011;37117;50.050;19.924;2023-03-11T13:30:50;8.70;;;5.60;;
38338;SDS011;37117;50.050;19.924;2023-03-11T13:33:28;10.70;;;6.60;;
38338;SDS011;37117;50.050;19.924;2023-03-11T13:36:04;11.30;;;5.80;;
38338;SDS011;37117;50.050;19.924;2023-03-11T13:38:41;9.80;;;6.90;;
38338;SDS011;37117;50.050;19.924;2023-03-11T13:41:15;10.40;;;5.80;;
38338;SDS011;37117;50.050;19.924;2023-03-11T13:43:47;16.50;;;8.20;;
38338;SDS011;37117;50.050;19.924;2023-03-11T13:46:22;10.10;;;6.80;;
38338;SDS011;37117;50.050;19.924;2023-03-11T13:48:55;10.00;;;6.50;;
38338;SDS011;37117;50.050;19.924;2023-03-11T13:51:34;9.90;;;6.40;;
38338;SDS011;37117;50.050;19.924;2023-03-11T13:54:08;10.20;;;5.60;;
38338;SDS011;37117;50.050;19.924;2023-03-11T13:56:47;12.50;;;6.00;;
38338;SDS011;37117;50.050;19.924;2023-03-11T13:59:22;8.10;;;5.50;;
38338;SDS011;37117;50.050;19.924;2023-03-11T14:01:53;9.50;;;6.00;;
38338;SDS011;37117;50.050;19.924;2023-03-11T14:04:28;9.30;;;5.70;;
38338;SDS011;37117;50.050;19.924;2023-03-11T14:06:59;7.80;;;4.50;;
38338;SDS011;37117;50.050;19.924;2023-03-11T14:09:45;6.70;;;3.70;;
38338;SDS011;37117;50.050;19.924;2023-03-11T14:12:16;7.80;;;4.70;;
38338;SDS011;37117;50.050;19.924;2023-03-11T14:14:48;9.00;;;5.10;;
38338;SDS011;37117;50.050;19.924;2023-03-11T14:17:20;7.00;;;4.40;;
38338;SDS011;37117;50.050;19.924;2023-03-11T14:22:36;8.80;;;5.70;;
38338;SDS011;37117;50.050;19.924;2023-03-11T14:25:12;6.60;;;4.10;;
38338;SDS011;37117;50.050;19.924;2023-03-11T14:27:48;8.10;;;4.60;;
38338;SDS011;37117;50.050;19.924;2023-03-11T14:30:21;9.10;;;5.70;;
38338;SDS011;37117;50.050;19.924;2023-03-11T14:32:57;7.40;;;4.30;;
38338;SDS011;37117;50.050;19.924;2023-03-11T14:35:29;9.80;;;4.60;;
38338;SDS011;37117;50.050;19.924;2023-03-11T14:38:02;6.00;;;3.90;;
38338;SDS011;37117;50.050;19.924;2023-03-11T14:40:35;7.50;;;4.10;;
38338;SDS011;37117;50.050;19.924;2023-03-11T14:43:07;8.30;;;4.20;;
38338;SDS011;37117;50.050;19.924;2023-03-11T14:45:40;6.40;;;3.80;;
38338;SDS011;37117;50.050;19.924;2023-03-11T14:48:12;9.80;;;3.80;;
38338;SDS011;37117;50.050;19.924;2023-03-11T14:50:48;6.60;;;4.00;;
38338;SDS011;37117;50.050;19.924;2023-03-11T14:53:20;6.40;;;3.70;;
38338;SDS011;37117;50.050;19.924;2023-03-11T14:55:55;8.00;;;3.90;;
38338;SDS011;37117;50.050;19.924;2023-03-11T14:58:28;7.20;;;3.80;;
38338;SDS011;37117;50.050;19.924;2023-03-11T15:01:04;6.60;;;3.70;;
38338;SDS011;37117;50.050;19.924;2023-03-11T15:03:43;6.50;;;3.80;;
38338;SDS011;37117;50.050;19.924;2023-03-11T15:06:18;9.10;;;3.70;;
38338;SDS011;37117;50.050;19.924;2023-03-11T15:08:55;7.30;;;4.60;;
38338;SDS011;37117;50.050;19.924;2023-03-11T15:11:27;7.40;;;4.30;;
38338;SDS011;37117;50.050;19.924;2023-03-11T15:14:12;7.70;;;4.20;;
38338;SDS011;37117;50.050;19.924;2023-03-11T15:16:44;7.80;;;4.50;;
38338;SDS011;37117;50.050;19.924;2023-03-11T15:19:30;9.20;;;4.40;;
38338;SDS011;37117;50.050;19.924;2023-03-11T15:22:05;8.20;;;5.50;;
38338;SDS011;37117;50.050;19.924;2023-03-11T15:27:07;8.10;;;4.30;;
38338;SDS011;37117;50.050;19.924;2023-03-11T15:29:45;9.40;;;5.30;;
38338;SDS011;37117;50.050;19.924;2023-03-11T15:32:34;10.20;;;5.70;;
38338;SDS011;37117;50.050;19.924;2023-03-11T15:35:18;10.90;;;6.40;;
38338;SDS011;37117;50.050;19.924;2023-03-11T15:40:40;11.50;;;7.40;;
38338;SDS011;37117;50.050;19.924;2023-03-11T15:43:20;10.60;;;8.00;;
38338;SDS011;37117;50.050;19.924;2023-03-11T15:45:52;13.80;;;8.60;;
38338;SDS011;37117;50.050;19.924;2023-03-11T15:48:23;17.00;;;11.10;;
38338;SDS011;37117;50.050;19.924;2023-03-11T15:50:56;16.50;;;10.80;;
38338;SDS011;37117;50.050;19.924;2023-03-11T15:53:28;15.20;;;11.50;;
38338;SDS011;37117;50.050;19.924;2023-03-11T15:56:01;19.20;;;14.90;;
38338;SDS011;37117;50.050;19.924;2023-03-11T15:58:36;17.20;;;12.10;;
38338;SDS011;37117;50.050;19.924;2023-03-11T16:01:08;17.10;;;11.30;;